EDDN Airport Information

Runway Information
Runway 10 Length 8858 ft width 148 ft
Elevation 1022 ft Threshold ft Heading 99
Runway 28 Length 8858 ft Width 148 ft
Elevation 1046 ft Threshold ft Heading 279
Airport Frequencies
Type AFIS Name MUNCHEN IN Frequency 120.65 MHZ
Type ATIS Name ATIS Frequency 123.075 MHZ
Type DIR Name DIR Frequency 119.475 MHZ
Type GND Name GND Frequency 118.1 MHZ
Type RDR Name MUNCHEN RA Frequency 118.975 MHZ
Type TWR Name TWR Frequency 118.3 MHZ
Airport Navaids
Type DME Name Nurnberg Frequency 113100 KHZ
Type NDB Name Rothenbach Frequency 415 KHZ
Airport Weather Information & NOTAM
ADDS - METARS form results

(1004 UTC 08 August 2022)
Data provider http://aviationweather.gov/metar/data/
 
METAR text: EDDN 080950Z AUTO 11011KT 070V150 CAVOK 25/06 Q1023 NOSIG
Conditions at: EDDN (NUERNBERG , DE) observed 0950 UTC 08 August 2022
Temperature: 25.0°C (77°F)
Dewpoint: 6.0°C (43°F) [RH = 30%]
Pressure (altimeter): 30.21 inches Hg (1023.0 mb)
Winds: from the ESE (110 degrees) at 13 MPH (11 knots; 5.7 m/s)
Visibility: 6 or more miles (10+ km)
Ceiling: ceiling and visibility are OK
Clouds: unknown
Weather: no significant weather observed at this time

METAR text: EDDN 080920Z AUTO 12010KT CAVOK 25/05 Q1023 NOSIG
Conditions at: EDDN (NUERNBERG , DE) observed 0920 UTC 08 August 2022
Temperature: 25.0°C (77°F)
Dewpoint: 5.0°C (41°F) [RH = 28%]
Pressure (altimeter): 30.21 inches Hg (1023.0 mb)
Winds: from the ESE (120 degrees) at 12 MPH (10 knots; 5.1 m/s)
Visibility: 6 or more miles (10+ km)
Ceiling: ceiling and visibility are OK
Clouds: unknown
Weather: no significant weather observed at this time

Forecast for: EDDN (NUERNBERG , DE)
Text: TAF EDDN 080500Z 0806/0906 VRB03KT CAVOK
Forecast period: 0600 to 0700 UTC 08 August 2022
Forecast type: FROM: standard forecast or significant change
Winds: variable direction winds at 3 MPH (3 knots; 1.5 m/s)
Visibility: 6 or more miles (10+ km)
Ceiling: unknown
Clouds: missing
Weather: NSW  (no significant weather)
Text: BECMG 0807/0809 04007KT
Forecast period: 0700 to 1800 UTC 08 August 2022
Forecast type: BECOMING: Conditions expected to become as follows by 0900 UTC 08 August 2022
Winds: from the NE (40 degrees) at 8 MPH (7 knots; 3.6 m/s)
Visibility: 6 or more miles (10+ km)
Ceiling: unknown
Clouds: missing
Weather: NSW  (no significant weather)
Text: BECMG 0818/0820 VRB03KT
Forecast period: 1800 UTC 08 August 2022 to 0600 UTC 09 August 2022
Forecast type: BECOMING: Conditions expected to become as follows by 2000 UTC 08 August 2022
Winds: variable direction winds at 3 MPH (3 knots; 1.5 m/s)
Visibility: 6 or more miles (10+ km)
Ceiling: unknown
Clouds: missing
Weather: NSW  (no significant weather)